Time;durP1;ratioP1;P1;durP2;ratioP2;P2;SDS_P1;SDS_P2;PMS_P1;PMS_P2;Temp;Humidity;BMP_temperature;BMP_pressure;BME280_temperature;BME280_humidity;BME280_pressure;Samples;Min_cycle;Max_cycle;Signal;HPM_P1;HPM_P2
2023/09/28 00:04:27;;;;;;;10.10;3.40;;;10.50;99.90;;;;;;25589641;23;20013;-50
2023/09/28 00:14:29;;;;;;;7.28;3.30;;;10.50;99.90;;;;;;25589174;23;20392;-59
2023/09/28 00:24:32;;;;;;;5.43;3.50;;;10.50;99.90;;;;;;25588878;23;20001;-50
2023/09/28 00:34:34;;;;;;;6.45;3.63;;;10.40;99.90;;;;;;25589039;23;20067;-51
2023/09/28 00:44:36;;;;;;;7.82;3.70;;;10.20;99.90;;;;;;25588352;23;20433;-51
2023/09/28 00:54:38;;;;;;;8.18;3.88;;;10.10;99.90;;;;;;25588103;23;20009;-51
2023/09/28 01:04:41;;;;;;;11.75;4.25;;;9.90;99.90;;;;;;25536700;23;20001;-59
2023/09/28 01:14:43;;;;;;;6.55;3.95;;;9.90;99.90;;;;;;25587591;23;20005;-58
2023/09/28 01:24:45;;;;;;;7.35;3.70;;;9.90;99.90;;;;;;25593292;23;20083;-48
2023/09/28 01:34:47;;;;;;;10.90;4.50;;;9.90;99.90;;;;;;25595181;23;20020;-53
2023/09/28 01:44:49;;;;;;;6.35;4.40;;;9.90;99.90;;;;;;25595129;23;20273;-47
2023/09/28 01:54:51;;;;;;;8.95;4.45;;;9.90;99.90;;;;;;25594692;23;20001;-48
2023/09/28 02:04:53;;;;;;;7.95;4.70;;;10.00;99.90;;;;;;25594240;23;20056;-52
2023/09/28 02:15:00;;;;;;;7.20;4.32;;;9.90;99.90;;;;;;25567586;23;20009;-51
2023/09/28 02:25:02;;;;;;;12.77;4.57;;;10.00;99.90;;;;;;25335875;23;20010;-59
2023/09/28 02:35:06;;;;;;;9.07;4.90;;;9.90;99.90;;;;;;25248964;23;20549;-50
2023/09/28 02:45:12;;;;;;;6.93;4.63;;;9.70;99.90;;;;;;25214353;23;20085;-52
2023/09/28 02:55:17;;;;;;;6.97;4.47;;;9.60;99.90;;;;;;25417861;23;20041;-50
2023/09/28 03:05:23;;;;;;;8.68;4.93;;;9.60;99.90;;;;;;25468757;23;20006;-58
2023/09/28 03:15:24;;;;;;;12.48;4.80;;;9.60;99.90;;;;;;25468222;23;20414;-53
2023/09/28 03:25:26;;;;;;;6.13;4.40;;;9.60;99.90;;;;;;25467700;23;20010;-58
2023/09/28 03:35:28;;;;;;;9.70;4.82;;;9.70;99.90;;;;;;25560036;23;20179;-49
2023/09/28 03:45:30;;;;;;;8.88;5.50;;;9.60;99.90;;;;;;25589347;23;20005;-53
2023/09/28 03:55:32;;;;;;;8.55;4.97;;;9.40;99.90;;;;;;25562889;23;20004;-51
2023/09/28 04:05:34;;;;;;;7.75;4.70;;;9.50;99.90;;;;;;25588707;23;20052;-58
2023/09/28 04:15:36;;;;;;;9.68;5.28;;;9.90;99.90;;;;;;25588306;23;20016;-59
2023/09/28 04:25:38;;;;;;;7.22;4.72;;;10.10;99.90;;;;;;25588067;23;20013;-57
2023/09/28 04:35:40;;;;;;;8.93;5.03;;;9.90;99.90;;;;;;25587353;23;20017;-58
2023/09/28 04:45:42;;;;;;;6.97;4.85;;;9.70;99.90;;;;;;25587431;23;20040;-58
2023/09/28 04:55:43;;;;;;;9.75;5.00;;;9.90;99.90;;;;;;25588785;23;20715;-58
2023/09/28 05:05:45;;;;;;;11.60;5.57;;;10.00;99.90;;;;;;25586503;23;20005;-58
2023/09/28 05:15:47;;;;;;;9.98;5.10;;;10.00;99.90;;;;;;25588465;23;20009;-49
2023/09/28 05:25:49;;;;;;;8.73;4.95;;;9.90;99.90;;;;;;25586710;23;20513;-52
2023/09/28 05:35:51;;;;;;;9.32;5.00;;;10.00;99.90;;;;;;25586363;23;20079;-58
2023/09/28 05:45:53;;;;;;;10.18;4.55;;;10.50;99.90;;;;;;25559769;23;20582;-58
2023/09/28 05:55:58;;;;;;;5.90;4.20;;;11.00;99.90;;;;;;25585999;23;20009;-50
2023/09/28 06:05:59;;;;;;;8.35;4.63;;;11.40;99.90;;;;;;25587174;23;20071;-58
2023/09/28 06:16:01;;;;;;;8.45;4.95;;;11.30;99.90;;;;;;25566893;23;20452;-57
2023/09/28 06:26:03;;;;;;;6.38;4.00;;;11.40;99.90;;;;;;25592476;23;20008;-51
2023/09/28 06:36:05;;;;;;;9.27;3.75;;;11.50;99.90;;;;;;25592325;23;20017;-58
2023/09/28 06:46:08;;;;;;;11.35;4.20;;;12.10;99.90;;;;;;25591885;23;20009;-53
2023/09/28 06:56:11;;;;;;;6.70;3.65;;;13.00;99.90;;;;;;25591287;23;20332;-52
2023/09/28 07:06:14;;;;;;;5.07;3.22;;;13.90;99.90;;;;;;25592676;23;20760;-53
2023/09/28 07:16:16;;;;;;;5.53;3.83;;;14.80;99.90;;;;;;25590402;23;20445;-58
2023/09/28 07:26:18;;;;;;;11.55;4.72;;;14.90;99.90;;;;;;25590376;23;20016;-50
2023/09/28 07:36:20;;;;;;;8.90;3.70;;;15.00;99.90;;;;;;25589501;23;20009;-49
2023/09/28 07:46:22;;;;;;;5.32;3.70;;;15.50;99.90;;;;;;25589169;23;20009;-59
2023/09/28 07:56:24;;;;;;;7.22;3.45;;;16.30;99.90;;;;;;25589276;23;20067;-59
2023/09/28 08:06:26;;;;;;;7.13;3.45;;;17.00;99.90;;;;;;25588884;23;20005;-59
2023/09/28 08:16:29;;;;;;;6.25;3.97;;;16.90;99.90;;;;;;25588563;23;20009;-50
2023/09/28 08:26:31;;;;;;;6.18;4.25;;;16.20;99.90;;;;;;25588349;23;20367;-59
2023/09/28 08:36:33;;;;;;;6.95;4.72;;;15.40;99.90;;;;;;25587308;23;20017;-51
2023/09/28 08:46:39;;;;;;;6.40;4.10;;;15.00;99.90;;;;;;25585890;23;20040;-59
2023/09/28 08:56:42;;;;;;;8.18;3.80;;;16.10;99.90;;;;;;25628416;23;20008;-60
2023/09/28 09:06:45;;;;;;;8.27;3.88;;;18.00;99.90;;;;;;25586899;23;20001;-60
2023/09/28 09:16:47;;;;;;;7.03;4.00;;;19.40;99.90;;;;;;25586991;23;20488;-51
2023/09/28 09:26:50;;;;;;;5.85;4.00;;;20.30;99.90;;;;;;25586002;23;20013;-62
2023/09/28 09:36:56;;;;;;;7.63;4.45;;;20.90;99.90;;;;;;25585756;23;20020;-60
2023/09/28 09:46:59;;;;;;;5.95;3.60;;;21.30;99.90;;;;;;25633918;23;20060;-61
2023/09/28 09:57:06;;;;;;;5.75;4.45;;;20.60;99.90;;;;;;25567171;23;20521;-61
2023/09/28 10:07:12;;;;;;;7.30;4.35;;;20.20;99.90;;;;;;25635920;23;20341;-52
2023/09/28 10:17:15;;;;;;;5.25;4.00;;;20.10;99.90;;;;;;25635760;23;20325;-60
2023/09/28 10:27:17;;;;;;;5.35;4.20;;;20.80;99.90;;;;;;25593984;23;20016;-60
2023/09/28 10:37:20;;;;;;;7.88;4.07;;;21.00;99.90;;;;;;25593683;23;20282;-60
2023/09/28 10:47:23;;;;;;;9.30;4.53;;;21.50;99.90;;;;;;25593909;23;20314;-61
2023/09/28 10:57:32;;;;;;;7.30;4.40;;;22.00;99.90;;;;;;25593225;23;20001;-52
2023/09/28 11:07:35;;;;;;;7.72;4.28;;;22.40;99.90;;;;;;25634020;23;20333;-60
2023/09/28 11:17:37;;;;;;;6.65;4.00;;;22.20;99.90;;;;;;25592063;23;20384;-61
2023/09/28 11:27:40;;;;;;;5.68;4.03;;;22.40;99.90;;;;;;25591464;23;20507;-61
2023/09/28 11:37:41;;;;;;;6.15;4.45;;;22.70;99.90;;;;;;25591412;23;20067;-61
2023/09/28 11:47:47;;;;;;;6.97;4.20;;;22.90;99.90;;;;;;25590983;23;20059;-61
2023/09/28 11:57:49;;;;;;;7.38;4.72;;;22.60;99.90;;;;;;25631857;23;20005;-62
2023/09/28 12:07:51;;;;;;;9.88;3.90;;;22.70;99.90;;;;;;25590073;23;20051;-62
2023/09/28 12:17:53;;;;;;;8.02;4.07;;;22.90;99.90;;;;;;25590408;23;20013;-62
2023/09/28 12:27:57;;;;;;;8.20;4.53;;;22.90;99.90;;;;;;25590160;23;20321;-57
2023/09/28 12:38:03;;;;;;;6.35;4.32;;;22.90;99.30;;;;;;25589601;23;20023;-63
2023/09/28 12:48:05;;;;;;;5.70;4.30;;;22.60;98.70;;;;;;25630551;23;20087;-62
2023/09/28 12:58:07;;;;;;;11.80;4.72;;;23.00;99.90;;;;;;25562073;23;20413;-63
2023/09/28 13:08:12;;;;;;;7.30;4.30;;;22.90;99.50;;;;;;25589996;23;20076;-62
2023/09/28 13:18:15;;;;;;;8.48;4.45;;;22.80;99.10;;;;;;25592682;23;20008;-62
2023/09/28 13:28:17;;;;;;;5.95;3.95;;;22.50;99.90;;;;;;25596544;23;20024;-62
2023/09/28 13:38:18;;;;;;;8.15;4.40;;;21.80;99.90;;;;;;25637018;23;20009;-53
2023/09/28 13:48:21;;;;;;;7.03;4.25;;;21.50;99.90;;;;;;25595825;23;20040;-63
2023/09/28 13:58:26;;;;;;;7.75;4.55;;;21.00;99.60;;;;;;25595434;23;20077;-63
2023/09/28 14:08:30;;;;;;;6.75;4.70;;;20.00;99.90;;;;;;25594569;23;20028;-62
2023/09/28 14:18:32;;;;;;;8.43;4.90;;;19.60;99.90;;;;;;25594837;23;20352;-63
2023/09/28 14:28:35;;;;;;;5.78;4.50;;;19.50;99.90;;;;;;25593876;23;20009;-62
2023/09/28 14:38:37;;;;;;;9.60;4.90;;;19.10;99.90;;;;;;25593553;23;20043;-63
2023/09/28 14:48:40;;;;;;;10.43;5.43;;;18.40;99.90;;;;;;25593609;23;20012;-62
2023/09/28 14:58:41;;;;;;;7.45;5.45;;;17.90;99.90;;;;;;25593207;23;20329;-62
2023/09/28 15:08:43;;;;;;;11.30;5.72;;;17.60;99.90;;;;;;25592967;23;20012;-61
2023/09/28 15:18:45;;;;;;;6.45;5.13;;;17.30;99.90;;;;;;25592736;23;20008;-61
2023/09/28 15:28:47;;;;;;;7.40;5.10;;;17.10;99.90;;;;;;25591890;23;20020;-61
2023/09/28 15:38:49;;;;;;;12.60;6.00;;;16.90;99.90;;;;;;25591284;23;20067;-61
2023/09/28 15:48:50;;;;;;;9.88;6.20;;;16.30;99.90;;;;;;25591385;23;20385;-53
2023/09/28 15:58:52;;;;;;;23.42;17.52;;;15.50;99.90;;;;;;25590851;23;20503;-61
2023/09/28 16:08:54;;;;;;;48.20;21.95;;;14.90;99.90;;;;;;25590474;23;20329;-60
2023/09/28 16:18:56;;;;;;;190.77;96.22;;;14.50;99.90;;;;;;25590417;23;20376;-61
2023/09/28 16:28:57;;;;;;;114.22;38.20;;;13.90;99.90;;;;;;25591787;23;20017;-60
2023/09/28 16:38:59;;;;;;;21.27;9.63;;;13.50;99.90;;;;;;25563612;23;20047;-60
2023/09/28 16:49:03;;;;;;;15.57;8.60;;;13.20;99.90;;;;;;25589889;23;20009;-60
2023/09/28 16:59:05;;;;;;;17.48;10.13;;;12.90;99.90;;;;;;25589461;23;20432;-60
2023/09/28 17:09:06;;;;;;;98.38;61.10;;;12.60;99.90;;;;;;25589351;23;20088;-60
2023/09/28 17:19:08;;;;;;;42.38;25.98;;;12.30;99.90;;;;;;25589326;23;20001;-59
2023/09/28 17:29:10;;;;;;;10.65;8.20;;;12.00;99.90;;;;;;25562223;23;20063;-59
2023/09/28 17:39:11;;;;;;;39.25;30.88;;;12.00;99.90;;;;;;25588936;23;20310;-59
2023/09/28 17:49:15;;;;;;;42.53;24.52;;;12.00;99.90;;;;;;25588513;23;20333;-60
2023/09/28 17:59:16;;;;;;;97.63;44.45;;;11.70;99.90;;;;;;25588486;23;20310;-59
2023/09/28 18:09:18;;;;;;;45.13;20.73;;;11.70;99.90;;;;;;25595739;23;20012;-60
2023/09/28 18:19:20;;;;;;;27.50;13.80;;;11.60;99.90;;;;;;25595838;23;20020;-60
2023/09/28 18:29:21;;;;;;;16.60;10.02;;;11.50;99.90;;;;;;25595138;23;20008;-59
2023/09/28 18:39:23;;;;;;;27.05;10.15;;;11.60;99.90;;;;;;25594227;23;20034;-60
2023/09/28 18:49:25;;;;;;;22.63;10.55;;;11.40;99.90;;;;;;25543392;23;20009;-59
2023/09/28 18:59:27;;;;;;;19.00;9.57;;;11.30;99.90;;;;;;25593832;23;20005;-60
2023/09/28 19:09:29;;;;;;;10.88;6.00;;;11.40;99.90;;;;;;25591086;23;20009;-53
2023/09/28 19:19:32;;;;;;;15.25;6.93;;;11.10;99.90;;;;;;25593329;23;20103;-59
2023/09/28 19:29:34;;;;;;;8.05;4.82;;;11.30;99.90;;;;;;25592373;23;20013;-59
2023/09/28 19:39:36;;;;;;;7.78;4.72;;;11.50;99.90;;;;;;25592057;23;20055;-58
2023/09/28 19:49:38;;;;;;;7.57;4.47;;;11.10;99.90;;;;;;25593277;23;20503;-59
2023/09/28 19:59:40;;;;;;;5.35;3.22;;;10.90;99.90;;;;;;25591333;23;20428;-50
2023/09/28 20:09:42;;;;;;;4.15;2.40;;;11.10;99.90;;;;;;25591137;23;20325;-59
2023/09/28 20:19:44;;;;;;;3.58;2.28;;;11.30;99.90;;;;;;25590764;23;20012;-59
2023/09/28 20:29:46;;;;;;;3.47;2.05;;;11.40;99.90;;;;;;25563154;23;20060;-59
2023/09/28 20:39:48;;;;;;;4.65;1.90;;;11.10;99.90;;;;;;25211756;23;20018;-52
2023/09/28 20:49:51;;;;;;;16.08;5.93;;;11.20;99.90;;;;;;25211998;23;20014;-59
2023/09/28 20:59:56;;;;;;;6.00;2.42;;;11.00;99.90;;;;;;25211445;23;20132;-51
2023/09/28 21:09:58;;;;;;;10.85;4.45;;;10.60;99.90;;;;;;25511781;23;20013;-52
2023/09/28 21:19:59;;;;;;;5.57;2.70;;;10.50;99.90;;;;;;25589228;23;20506;-53
2023/09/28 21:30:03;;;;;;;11.48;4.25;;;10.30;99.90;;;;;;25585038;23;20013;-59
2023/09/28 21:40:05;;;;;;;7.15;2.90;;;10.30;99.90;;;;;;25593272;23;20336;-49
2023/09/28 21:50:07;;;;;;;9.45;4.03;;;10.20;99.90;;;;;;25596421;23;20008;-51
2023/09/28 22:00:34;;;;;;;12.52;5.90;;;10.40;99.90;;;;;;25569762;23;20001;-59
2023/09/28 22:10:31;;;;;;;8.60;5.20;;;10.50;99.90;;;;;;25595054;23;20009;-51
2023/09/28 22:20:32;;;;;;;15.52;7.60;;;10.50;99.90;;;;;;25596998;23;20009;-53
2023/09/28 22:30:34;;;;;;;12.55;6.70;;;10.50;99.90;;;;;;25594598;23;20067;-59
2023/09/28 22:40:36;;;;;;;10.05;5.75;;;10.60;99.90;;;;;;25594739;23;20005;-51
2023/09/28 22:50:37;;;;;;;12.30;6.22;;;10.70;99.90;;;;;;25595485;23;20009;-52
2023/09/28 23:00:39;;;;;;;17.70;8.65;;;10.90;99.90;;;;;;25593889;23;20433;-53
2023/09/28 23:10:41;;;;;;;12.20;6.25;;;10.80;99.90;;;;;;25591939;23;20001;-59
2023/09/28 23:20:42;;;;;;;12.05;6.65;;;10.70;99.90;;;;;;25593293;23;20009;-59
2023/09/28 23:30:46;;;;;;;12.43;7.55;;;10.70;99.90;;;;;;25592491;23;20009;-59
2023/09/28 23:40:48;;;;;;;9.30;6.10;;;10.60;99.90;;;;;;25592427;23;20013;-51
2023/09/28 23:50:50;;;;;;;22.90;10.95;;;10.60;99.90;;;;;;25592332;23;20016;-59
